sensor_id;sensor_type;location;lat;lon;timestamp;P1;durP1;ratioP1;P2;durP2;ratioP2
33714;SDS011;20043;50.998;4.754;2023-05-20T00:00:30;9.43;;;4.35;;
33714;SDS011;20043;50.998;4.754;2023-05-20T00:02:56;9.80;;;4.10;;
33714;SDS011;20043;50.998;4.754;2023-05-20T00:05:23;8.55;;;3.45;;
33714;SDS011;20043;50.998;4.754;2023-05-20T00:07:49;11.70;;;4.00;;
33714;SDS011;20043;50.998;4.754;2023-05-20T00:10:15;10.10;;;3.92;;
33714;SDS011;20043;50.998;4.754;2023-05-20T00:12:40;11.15;;;4.07;;
33714;SDS011;20043;50.998;4.754;2023-05-20T00:15:06;8.88;;;3.33;;
33714;SDS011;20043;50.998;4.754;2023-05-20T00:17:32;13.50;;;3.78;;
33714;SDS011;20043;50.998;4.754;2023-05-20T00:19:58;10.15;;;3.40;;
33714;SDS011;20043;50.998;4.754;2023-05-20T00:22:24;7.15;;;3.38;;
33714;SDS011;20043;50.998;4.754;2023-05-20T00:24:50;6.95;;;3.58;;
33714;SDS011;20043;50.998;4.754;2023-05-20T00:27:15;7.90;;;3.42;;
33714;SDS011;20043;50.998;4.754;2023-05-20T00:29:41;10.45;;;3.35;;
33714;SDS011;20043;50.998;4.754;2023-05-20T00:32:07;8.32;;;3.25;;
33714;SDS011;20043;50.998;4.754;2023-05-20T00:34:32;9.90;;;3.10;;
33714;SDS011;20043;50.998;4.754;2023-05-20T00:36:58;7.28;;;3.10;;
33714;SDS011;20043;50.998;4.754;2023-05-20T00:39:24;8.77;;;2.85;;
33714;SDS011;20043;50.998;4.754;2023-05-20T00:41:49;6.68;;;3.00;;
33714;SDS011;20043;50.998;4.754;2023-05-20T00:44:23;7.22;;;3.33;;
33714;SDS011;20043;50.998;4.754;2023-05-20T00:47:02;7.97;;;2.70;;
33714;SDS011;20043;50.998;4.754;2023-05-20T00:49:27;6.85;;;3.38;;
33714;SDS011;20043;50.998;4.754;2023-05-20T00:51:53;7.15;;;3.13;;
33714;SDS011;20043;50.998;4.754;2023-05-20T00:54:19;8.65;;;3.08;;
33714;SDS011;20043;50.998;4.754;2023-05-20T00:56:46;6.22;;;2.95;;
33714;SDS011;20043;50.998;4.754;2023-05-20T00:59:12;8.75;;;2.90;;
33714;SDS011;20043;50.998;4.754;2023-05-20T01:01:38;12.35;;;2.92;;
33714;SDS011;20043;50.998;4.754;2023-05-20T01:04:04;7.25;;;3.00;;
33714;SDS011;20043;50.998;4.754;2023-05-20T01:06:29;9.23;;;2.85;;
33714;SDS011;20043;50.998;4.754;2023-05-20T01:08:55;8.95;;;3.03;;
33714;SDS011;20043;50.998;4.754;2023-05-20T01:11:24;15.20;;;3.35;;
33714;SDS011;20043;50.998;4.754;2023-05-20T01:13:54;7.43;;;3.30;;
33714;SDS011;20043;50.998;4.754;2023-05-20T01:16:25;6.45;;;3.08;;
33714;SDS011;20043;50.998;4.754;2023-05-20T01:18:52;10.52;;;2.92;;
33714;SDS011;20043;50.998;4.754;2023-05-20T01:21:20;8.95;;;3.10;;
33714;SDS011;20043;50.998;4.754;2023-05-20T01:23:46;6.80;;;3.08;;
33714;SDS011;20043;50.998;4.754;2023-05-20T01:26:12;7.32;;;3.17;;
33714;SDS011;20043;50.998;4.754;2023-05-20T01:28:38;7.25;;;3.08;;
33714;SDS011;20043;50.998;4.754;2023-05-20T01:31:10;7.72;;;3.00;;
33714;SDS011;20043;50.998;4.754;2023-05-20T01:33:42;9.23;;;3.35;;
33714;SDS011;20043;50.998;4.754;2023-05-20T01:36:08;9.93;;;3.05;;
33714;SDS011;20043;50.998;4.754;2023-05-20T01:38:35;7.30;;;3.08;;
33714;SDS011;20043;50.998;4.754;2023-05-20T01:41:03;8.27;;;3.30;;
33714;SDS011;20043;50.998;4.754;2023-05-20T01:43:29;11.82;;;2.92;;
33714;SDS011;20043;50.998;4.754;2023-05-20T01:45:55;10.65;;;3.33;;
33714;SDS011;20043;50.998;4.754;2023-05-20T01:48:21;8.95;;;3.20;;
33714;SDS011;20043;50.998;4.754;2023-05-20T01:50:46;7.38;;;3.10;;
33714;SDS011;20043;50.998;4.754;2023-05-20T01:53:12;9.35;;;3.20;;
33714;SDS011;20043;50.998;4.754;2023-05-20T01:55:38;7.13;;;2.97;;
33714;SDS011;20043;50.998;4.754;2023-05-20T01:58:04;7.38;;;3.08;;
33714;SDS011;20043;50.998;4.754;2023-05-20T02:00:30;8.70;;;3.30;;
33714;SDS011;20043;50.998;4.754;2023-05-20T02:02:57;9.68;;;3.25;;
33714;SDS011;20043;50.998;4.754;2023-05-20T02:05:23;8.85;;;3.88;;
33714;SDS011;20043;50.998;4.754;2023-05-20T02:07:48;7.70;;;3.60;;
33714;SDS011;20043;50.998;4.754;2023-05-20T02:10:14;12.05;;;3.53;;
33714;SDS011;20043;50.998;4.754;2023-05-20T02:12:41;7.95;;;3.08;;
33714;SDS011;20043;50.998;4.754;2023-05-20T02:15:07;6.70;;;3.20;;
33714;SDS011;20043;50.998;4.754;2023-05-20T02:17:33;10.40;;;3.20;;
33714;SDS011;20043;50.998;4.754;2023-05-20T02:19:58;9.93;;;3.28;;
33714;SDS011;20043;50.998;4.754;2023-05-20T02:22:24;6.10;;;2.97;;
33714;SDS011;20043;50.998;4.754;2023-05-20T02:24:50;7.50;;;3.25;;
33714;SDS011;20043;50.998;4.754;2023-05-20T02:27:15;11.45;;;3.47;;
33714;SDS011;20043;50.998;4.754;2023-05-20T02:29:41;10.25;;;3.20;;
33714;SDS011;20043;50.998;4.754;2023-05-20T02:32:08;10.13;;;3.38;;
33714;SDS011;20043;50.998;4.754;2023-05-20T02:34:33;8.98;;;3.30;;
33714;SDS011;20043;50.998;4.754;2023-05-20T02:36:59;8.25;;;3.88;;
33714;SDS011;20043;50.998;4.754;2023-05-20T02:39:25;11.20;;;3.83;;
33714;SDS011;20043;50.998;4.754;2023-05-20T02:41:52;12.35;;;3.67;;
33714;SDS011;20043;50.998;4.754;2023-05-20T02:44:17;8.52;;;3.50;;
33714;SDS011;20043;50.998;4.754;2023-05-20T02:46:43;9.90;;;3.90;;
33714;SDS011;20043;50.998;4.754;2023-05-20T02:49:09;10.30;;;3.65;;
33714;SDS011;20043;50.998;4.754;2023-05-20T02:51:35;8.48;;;3.35;;
33714;SDS011;20043;50.998;4.754;2023-05-20T02:54:01;11.95;;;3.78;;
33714;SDS011;20043;50.998;4.754;2023-05-20T02:56:26;9.30;;;3.80;;
33714;SDS011;20043;50.998;4.754;2023-05-20T02:58:52;7.90;;;3.70;;
33714;SDS011;20043;50.998;4.754;2023-05-20T03:01:18;9.10;;;3.72;;
33714;SDS011;20043;50.998;4.754;2023-05-20T03:03:43;6.68;;;3.90;;
33714;SDS011;20043;50.998;4.754;2023-05-20T03:06:09;7.65;;;3.70;;
33714;SDS011;20043;50.998;4.754;2023-05-20T03:08:35;10.50;;;3.80;;
33714;SDS011;20043;50.998;4.754;2023-05-20T03:11:00;10.35;;;4.13;;
33714;SDS011;20043;50.998;4.754;2023-05-20T03:13:26;8.23;;;3.47;;
33714;SDS011;20043;50.998;4.754;2023-05-20T03:15:52;13.90;;;4.45;;
33714;SDS011;20043;50.998;4.754;2023-05-20T03:18:18;8.65;;;4.00;;
33714;SDS011;20043;50.998;4.754;2023-05-20T03:20:44;11.60;;;4.13;;
33714;SDS011;20043;50.998;4.754;2023-05-20T03:23:10;9.18;;;3.72;;
33714;SDS011;20043;50.998;4.754;2023-05-20T03:25:36;9.23;;;4.55;;
33714;SDS011;20043;50.998;4.754;2023-05-20T03:28:02;9.43;;;4.05;;
33714;SDS011;20043;50.998;4.754;2023-05-20T03:30:28;12.48;;;4.20;;
33714;SDS011;20043;50.998;4.754;2023-05-20T03:32:54;10.80;;;4.70;;
33714;SDS011;20043;50.998;4.754;2023-05-20T03:35:21;10.57;;;3.95;;
33714;SDS011;20043;50.998;4.754;2023-05-20T03:37:47;16.52;;;5.32;;
33714;SDS011;20043;50.998;4.754;2023-05-20T03:40:13;11.00;;;4.50;;
33714;SDS011;20043;50.998;4.754;2023-05-20T03:42:38;10.77;;;4.20;;
33714;SDS011;20043;50.998;4.754;2023-05-20T03:45:04;9.25;;;4.30;;
33714;SDS011;20043;50.998;4.754;2023-05-20T03:47:30;9.50;;;4.35;;
33714;SDS011;20043;50.998;4.754;2023-05-20T03:49:56;7.95;;;3.92;;
33714;SDS011;20043;50.998;4.754;2023-05-20T03:52:22;10.95;;;4.57;;
33714;SDS011;20043;50.998;4.754;2023-05-20T03:54:48;11.88;;;4.22;;
33714;SDS011;20043;50.998;4.754;2023-05-20T03:57:13;9.15;;;4.43;;
33714;SDS011;20043;50.998;4.754;2023-05-20T03:59:39;11.65;;;4.78;;
33714;SDS011;20043;50.998;4.754;2023-05-20T04:02:05;9.00;;;4.90;;
33714;SDS011;20043;50.998;4.754;2023-05-20T04:04:32;13.15;;;4.85;;
33714;SDS011;20043;50.998;4.754;2023-05-20T04:06:57;10.48;;;5.05;;
33714;SDS011;20043;50.998;4.754;2023-05-20T04:09:31;11.05;;;4.60;;
33714;SDS011;20043;50.998;4.754;2023-05-20T04:11:57;11.00;;;4.85;;
33714;SDS011;20043;50.998;4.754;2023-05-20T04:14:22;14.60;;;5.05;;
33714;SDS011;20043;50.998;4.754;2023-05-20T04:16:48;11.27;;;4.43;;
33714;SDS011;20043;50.998;4.754;2023-05-20T04:19:15;8.32;;;4.32;;
33714;SDS011;20043;50.998;4.754;2023-05-20T04:21:43;10.40;;;4.35;;
33714;SDS011;20043;50.998;4.754;2023-05-20T04:24:09;11.77;;;4.63;;
33714;SDS011;20043;50.998;4.754;2023-05-20T04:26:35;11.82;;;4.38;;
33714;SDS011;20043;50.998;4.754;2023-05-20T04:29:01;13.18;;;4.63;;
33714;SDS011;20043;50.998;4.754;2023-05-20T04:31:28;14.77;;;4.25;;
33714;SDS011;20043;50.998;4.754;2023-05-20T04:33:55;12.38;;;4.55;;
33714;SDS011;20043;50.998;4.754;2023-05-20T04:36:20;11.65;;;4.07;;
33714;SDS011;20043;50.998;4.754;2023-05-20T04:38:46;6.18;;;3.70;;
33714;SDS011;20043;50.998;4.754;2023-05-20T04:41:13;8.70;;;3.88;;
33714;SDS011;20043;50.998;4.754;2023-05-20T04:43:40;10.43;;;4.07;;
33714;SDS011;20043;50.998;4.754;2023-05-20T04:46:05;9.43;;;3.80;;
33714;SDS011;20043;50.998;4.754;2023-05-20T04:48:31;9.93;;;3.70;;
33714;SDS011;20043;50.998;4.754;2023-05-20T04:50:57;7.50;;;3.53;;
33714;SDS011;20043;50.998;4.754;2023-05-20T04:53:23;14.70;;;4.03;;
33714;SDS011;20043;50.998;4.754;2023-05-20T04:55:49;10.02;;;4.22;;
33714;SDS011;20043;50.998;4.754;2023-05-20T04:58:18;7.50;;;3.65;;
33714;SDS011;20043;50.998;4.754;2023-05-20T05:00:48;9.20;;;3.90;;
33714;SDS011;20043;50.998;4.754;2023-05-20T05:03:15;9.32;;;3.60;;
33714;SDS011;20043;50.998;4.754;2023-05-20T05:05:41;7.93;;;3.65;;
33714;SDS011;20043;50.998;4.754;2023-05-20T05:08:07;7.80;;;3.35;;
33714;SDS011;20043;50.998;4.754;2023-05-20T05:10:35;11.80;;;3.40;;
33714;SDS011;20043;50.998;4.754;2023-05-20T05:13:01;8.50;;;3.47;;
33714;SDS011;20043;50.998;4.754;2023-05-20T05:15:26;11.82;;;3.85;;
33714;SDS011;20043;50.998;4.754;2023-05-20T05:17:53;10.57;;;3.83;;
33714;SDS011;20043;50.998;4.754;2023-05-20T05:20:18;12.15;;;3.30;;
33714;SDS011;20043;50.998;4.754;2023-05-20T05:22:44;6.60;;;3.70;;
33714;SDS011;20043;50.998;4.754;2023-05-20T05:25:10;10.98;;;3.70;;
33714;SDS011;20043;50.998;4.754;2023-05-20T05:27:36;10.43;;;3.60;;
33714;SDS011;20043;50.998;4.754;2023-05-20T05:30:03;8.40;;;3.65;;
33714;SDS011;20043;50.998;4.754;2023-05-20T05:32:30;8.27;;;3.85;;
33714;SDS011;20043;50.998;4.754;2023-05-20T05:34:56;9.60;;;4.38;;
33714;SDS011;20043;50.998;4.754;2023-05-20T05:37:21;10.68;;;3.55;;
33714;SDS011;20043;50.998;4.754;2023-05-20T05:39:47;8.68;;;3.55;;
33714;SDS011;20043;50.998;4.754;2023-05-20T05:42:13;11.82;;;4.13;;
33714;SDS011;20043;50.998;4.754;2023-05-20T05:44:38;10.15;;;4.05;;
33714;SDS011;20043;50.998;4.754;2023-05-20T05:47:04;9.55;;;3.65;;
33714;SDS011;20043;50.998;4.754;2023-05-20T05:49:30;9.43;;;3.80;;
33714;SDS011;20043;50.998;4.754;2023-05-20T05:51:56;8.48;;;3.75;;
33714;SDS011;20043;50.998;4.754;2023-05-20T05:54:22;11.20;;;3.28;;
33714;SDS011;20043;50.998;4.754;2023-05-20T05:56:49;11.27;;;3.50;;
33714;SDS011;20043;50.998;4.754;2023-05-20T05:59:15;10.25;;;3.22;;
33714;SDS011;20043;50.998;4.754;2023-05-20T06:01:41;8.82;;;3.55;;
33714;SDS011;20043;50.998;4.754;2023-05-20T06:04:06;8.57;;;3.88;;
33714;SDS011;20043;50.998;4.754;2023-05-20T06:06:32;7.85;;;3.63;;
33714;SDS011;20043;50.998;4.754;2023-05-20T06:08:58;9.52;;;3.47;;
33714;SDS011;20043;50.998;4.754;2023-05-20T06:11:23;9.18;;;3.72;;
33714;SDS011;20043;50.998;4.754;2023-05-20T06:13:50;6.65;;;3.20;;
33714;SDS011;20043;50.998;4.754;2023-05-20T06:16:16;9.57;;;4.28;;
33714;SDS011;20043;50.998;4.754;2023-05-20T06:18:42;10.63;;;3.80;;
33714;SDS011;20043;50.998;4.754;2023-05-20T06:21:09;6.65;;;3.60;;
33714;SDS011;20043;50.998;4.754;2023-05-20T06:23:35;9.45;;;3.88;;
33714;SDS011;20043;50.998;4.754;2023-05-20T06:26:01;13.15;;;3.75;;
33714;SDS011;20043;50.998;4.754;2023-05-20T06:28:27;11.68;;;3.95;;
33714;SDS011;20043;50.998;4.754;2023-05-20T06:30:53;13.70;;;4.22;;
33714;SDS011;20043;50.998;4.754;2023-05-20T06:33:20;10.05;;;3.85;;
33714;SDS011;20043;50.998;4.754;2023-05-20T06:35:50;9.27;;;3.50;;
33714;SDS011;20043;50.998;4.754;2023-05-20T06:38:16;10.23;;;4.20;;
33714;SDS011;20043;50.998;4.754;2023-05-20T06:40:42;11.98;;;4.03;;
33714;SDS011;20043;50.998;4.754;2023-05-20T06:43:08;14.15;;;3.67;;
33714;SDS011;20043;50.998;4.754;2023-05-20T06:45:34;7.57;;;3.30;;
33714;SDS011;20043;50.998;4.754;2023-05-20T06:47:59;10.20;;;3.78;;
33714;SDS011;20043;50.998;4.754;2023-05-20T06:50:25;9.43;;;3.85;;
33714;SDS011;20043;50.998;4.754;2023-05-20T06:52:52;8.85;;;3.72;;
33714;SDS011;20043;50.998;4.754;2023-05-20T06:55:18;9.45;;;3.95;;
33714;SDS011;20043;50.998;4.754;2023-05-20T06:57:43;7.63;;;3.58;;
33714;SDS011;20043;50.998;4.754;2023-05-20T07:00:09;12.88;;;3.92;;
33714;SDS011;20043;50.998;4.754;2023-05-20T07:02:36;8.52;;;3.33;;
33714;SDS011;20043;50.998;4.754;2023-05-20T07:05:01;10.52;;;3.55;;
33714;SDS011;20043;50.998;4.754;2023-05-20T07:07:27;8.50;;;3.50;;
33714;SDS011;20043;50.998;4.754;2023-05-20T07:09:53;7.97;;;3.30;;
33714;SDS011;20043;50.998;4.754;2023-05-20T07:12:19;10.52;;;3.80;;
33714;SDS011;20043;50.998;4.754;2023-05-20T07:14:44;9.48;;;3.55;;
33714;SDS011;20043;50.998;4.754;2023-05-20T07:17:10;10.13;;;3.45;;
33714;SDS011;20043;50.998;4.754;2023-05-20T07:19:36;5.40;;;3.30;;
33714;SDS011;20043;50.998;4.754;2023-05-20T07:22:02;7.72;;;3.25;;
33714;SDS011;20043;50.998;4.754;2023-05-20T07:24:28;6.28;;;3.10;;
33714;SDS011;20043;50.998;4.754;2023-05-20T07:26:53;6.85;;;3.15;;
33714;SDS011;20043;50.998;4.754;2023-05-20T07:29:19;5.88;;;3.17;;
33714;SDS011;20043;50.998;4.754;2023-05-20T07:31:45;4.97;;;2.92;;
33714;SDS011;20043;50.998;4.754;2023-05-20T07:34:10;8.95;;;3.10;;
33714;SDS011;20043;50.998;4.754;2023-05-20T07:36:36;8.13;;;3.33;;
33714;SDS011;20043;50.998;4.754;2023-05-20T07:39:02;8.20;;;2.88;;
33714;SDS011;20043;50.998;4.754;2023-05-20T07:41:28;11.38;;;2.97;;
33714;SDS011;20043;50.998;4.754;2023-05-20T07:43:54;5.95;;;2.90;;
33714;SDS011;20043;50.998;4.754;2023-05-20T07:46:20;9.13;;;3.33;;
33714;SDS011;20043;50.998;4.754;2023-05-20T07:48:45;6.22;;;2.92;;
33714;SDS011;20043;50.998;4.754;2023-05-20T07:51:18;9.70;;;3.30;;
33714;SDS011;20043;50.998;4.754;2023-05-20T07:53:43;6.97;;;2.80;;
33714;SDS011;20043;50.998;4.754;2023-05-20T07:56:09;7.65;;;2.97;;
33714;SDS011;20043;50.998;4.754;2023-05-20T07:58:35;5.90;;;2.97;;
33714;SDS011;20043;50.998;4.754;2023-05-20T08:01:01;12.68;;;3.05;;
33714;SDS011;20043;50.998;4.754;2023-05-20T08:03:26;6.50;;;3.30;;
33714;SDS011;20043;50.998;4.754;2023-05-20T08:05:52;6.15;;;2.85;;
33714;SDS011;20043;50.998;4.754;2023-05-20T08:08:18;6.68;;;3.20;;
33714;SDS011;20043;50.998;4.754;2023-05-20T08:10:44;10.85;;;3.17;;
33714;SDS011;20043;50.998;4.754;2023-05-20T08:13:09;6.55;;;2.90;;
33714;SDS011;20043;50.998;4.754;2023-05-20T08:15:35;9.85;;;3.10;;
33714;SDS011;20043;50.998;4.754;2023-05-20T08:18:01;9.57;;;3.05;;
33714;SDS011;20043;50.998;4.754;2023-05-20T08:20:27;12.82;;;3.33;;
33714;SDS011;20043;50.998;4.754;2023-05-20T08:22:53;5.78;;;2.95;;
33714;SDS011;20043;50.998;4.754;2023-05-20T08:25:19;6.80;;;2.97;;
33714;SDS011;20043;50.998;4.754;2023-05-20T08:27:45;4.80;;;2.80;;
33714;SDS011;20043;50.998;4.754;2023-05-20T08:30:10;7.97;;;3.35;;
33714;SDS011;20043;50.998;4.754;2023-05-20T08:32:43;6.07;;;2.97;;
33714;SDS011;20043;50.998;4.754;2023-05-20T08:35:09;8.50;;;3.08;;
33714;SDS011;20043;50.998;4.754;2023-05-20T08:37:35;10.73;;;3.50;;
33714;SDS011;20043;50.998;4.754;2023-05-20T08:40:00;5.55;;;2.90;;
33714;SDS011;20043;50.998;4.754;2023-05-20T08:42:26;9.02;;;2.97;;
33714;SDS011;20043;50.998;4.754;2023-05-20T08:44:52;9.07;;;3.15;;
33714;SDS011;20043;50.998;4.754;2023-05-20T08:47:20;5.68;;;2.85;;
33714;SDS011;20043;50.998;4.754;2023-05-20T08:49:46;5.22;;;2.80;;
33714;SDS011;20043;50.998;4.754;2023-05-20T08:52:13;5.53;;;2.65;;
33714;SDS011;20043;50.998;4.754;2023-05-20T08:54:44;12.07;;;2.90;;
33714;SDS011;20043;50.998;4.754;2023-05-20T08:57:12;5.25;;;2.63;;
33714;SDS011;20043;50.998;4.754;2023-05-20T08:59:44;6.07;;;2.97;;
33714;SDS011;20043;50.998;4.754;2023-05-20T09:02:13;12.77;;;3.00;;
33714;SDS011;20043;50.998;4.754;2023-05-20T09:04:39;8.13;;;2.70;;
33714;SDS011;20043;50.998;4.754;2023-05-20T09:07:05;4.28;;;2.83;;
33714;SDS011;20043;50.998;4.754;2023-05-20T09:09:31;9.18;;;2.55;;
33714;SDS011;20043;50.998;4.754;2023-05-20T09:12:01;6.45;;;2.60;;
33714;SDS011;20043;50.998;4.754;2023-05-20T09:14:28;9.27;;;2.80;;
33714;SDS011;20043;50.998;4.754;2023-05-20T09:16:54;5.32;;;2.47;;
33714;SDS011;20043;50.998;4.754;2023-05-20T09:19:23;8.85;;;2.45;;
33714;SDS011;20043;50.998;4.754;2023-05-20T09:21:51;10.38;;;2.90;;
33714;SDS011;20043;50.998;4.754;2023-05-20T09:24:24;12.38;;;2.78;;
33714;SDS011;20043;50.998;4.754;2023-05-20T09:26:50;8.27;;;2.45;;
33714;SDS011;20043;50.998;4.754;2023-05-20T09:29:16;6.18;;;2.55;;
33714;SDS011;20043;50.998;4.754;2023-05-20T09:31:45;5.35;;;2.45;;
33714;SDS011;20043;50.998;4.754;2023-05-20T09:34:11;5.20;;;2.70;;
33714;SDS011;20043;50.998;4.754;2023-05-20T09:36:38;7.13;;;2.38;;
33714;SDS011;20043;50.998;4.754;2023-05-20T09:39:05;11.95;;;2.75;;
33714;SDS011;20043;50.998;4.754;2023-05-20T09:41:37;9.23;;;2.70;;
33714;SDS011;20043;50.998;4.754;2023-05-20T09:44:09;5.47;;;2.53;;
33714;SDS011;20043;50.998;4.754;2023-05-20T09:46:36;5.25;;;2.60;;
33714;SDS011;20043;50.998;4.754;2023-05-20T09:49:03;5.95;;;2.75;;
33714;SDS011;20043;50.998;4.754;2023-05-20T09:51:31;6.90;;;2.75;;
33714;SDS011;20043;50.998;4.754;2023-05-20T09:53:58;17.20;;;2.80;;
33714;SDS011;20043;50.998;4.754;2023-05-20T09:56:27;11.50;;;2.53;;
33714;SDS011;20043;50.998;4.754;2023-05-20T09:58:56;4.00;;;2.30;;
33714;SDS011;20043;50.998;4.754;2023-05-20T10:01:23;9.60;;;2.53;;
33714;SDS011;20043;50.998;4.754;2023-05-20T10:03:49;7.53;;;2.17;;
33714;SDS011;20043;50.998;4.754;2023-05-20T10:17:36;5.07;;;2.20;;
33714;SDS011;20043;50.998;4.754;2023-05-20T10:20:09;4.68;;;2.40;;
33714;SDS011;20043;50.998;4.754;2023-05-20T10:22:38;5.60;;;1.98;;
33714;SDS011;20043;50.998;4.754;2023-05-20T10:25:05;10.07;;;2.40;;
33714;SDS011;20043;50.998;4.754;2023-05-20T10:27:41;9.48;;;2.47;;
33714;SDS011;20043;50.998;4.754;2023-05-20T10:30:14;5.18;;;2.70;;
33714;SDS011;20043;50.998;4.754;2023-05-20T10:32:56;5.45;;;2.33;;
33714;SDS011;20043;50.998;4.754;2023-05-20T10:35:25;4.63;;;2.40;;
33714;SDS011;20043;50.998;4.754;2023-05-20T10:37:51;6.30;;;2.42;;
33714;SDS011;20043;50.998;4.754;2023-05-20T10:40:31;7.47;;;2.67;;
33714;SDS011;20043;50.998;4.754;2023-05-20T10:43:07;7.75;;;2.67;;
33714;SDS011;20043;50.998;4.754;2023-05-20T10:45:34;8.90;;;2.88;;
33714;SDS011;20043;50.998;4.754;2023-05-20T10:48:18;6.32;;;2.40;;
33714;SDS011;20043;50.998;4.754;2023-05-20T10:50:58;9.93;;;2.38;;
33714;SDS011;20043;50.998;4.754;2023-05-20T10:53:27;8.90;;;3.30;;
33714;SDS011;20043;50.998;4.754;2023-05-20T10:55:55;10.48;;;2.72;;
33714;SDS011;20043;50.998;4.754;2023-05-20T10:58:21;6.57;;;2.75;;
33714;SDS011;20043;50.998;4.754;2023-05-20T11:00:48;6.75;;;2.60;;
33714;SDS011;20043;50.998;4.754;2023-05-20T11:03:15;8.13;;;2.40;;
33714;SDS011;20043;50.998;4.754;2023-05-20T11:05:43;8.35;;;2.50;;
33714;SDS011;20043;50.998;4.754;2023-05-20T11:08:11;4.88;;;2.63;;
33714;SDS011;20043;50.998;4.754;2023-05-20T11:10:36;9.02;;;2.88;;
33714;SDS011;20043;50.998;4.754;2023-05-20T11:13:02;8.32;;;2.75;;
33714;SDS011;20043;50.998;4.754;2023-05-20T11:15:29;12.10;;;2.75;;
33714;SDS011;20043;50.998;4.754;2023-05-20T11:18:00;3.78;;;2.38;;
33714;SDS011;20043;50.998;4.754;2023-05-20T11:20:29;7.30;;;2.40;;
33714;SDS011;20043;50.998;4.754;2023-05-20T11:22:58;11.10;;;2.92;;
33714;SDS011;20043;50.998;4.754;2023-05-20T11:25:25;7.88;;;2.38;;
33714;SDS011;20043;50.998;4.754;2023-05-20T11:27:52;5.13;;;2.67;;
33714;SDS011;20043;50.998;4.754;2023-05-20T11:30:18;3.80;;;2.63;;
33714;SDS011;20043;50.998;4.754;2023-05-20T11:33:00;4.38;;;2.70;;
33714;SDS011;20043;50.998;4.754;2023-05-20T11:35:28;5.28;;;2.72;;
33714;SDS011;20043;50.998;4.754;2023-05-20T11:37:57;4.32;;;2.70;;
33714;SDS011;20043;50.998;4.754;2023-05-20T11:40:26;9.20;;;2.60;;
33714;SDS011;20043;50.998;4.754;2023-05-20T11:42:53;6.72;;;2.50;;
33714;SDS011;20043;50.998;4.754;2023-05-20T11:45:20;18.17;;;3.00;;
33714;SDS011;20043;50.998;4.754;2023-05-20T11:47:46;5.78;;;2.20;;
33714;SDS011;20043;50.998;4.754;2023-05-20T11:50:22;6.35;;;2.67;;
33714;SDS011;20043;50.998;4.754;2023-05-20T11:52:53;9.25;;;2.40;;
33714;SDS011;20043;50.998;4.754;2023-05-20T11:55:21;5.88;;;2.20;;
33714;SDS011;20043;50.998;4.754;2023-05-20T11:57:47;3.70;;;2.58;;
33714;SDS011;20043;50.998;4.754;2023-05-20T12:00:12;9.48;;;2.70;;
33714;SDS011;20043;50.998;4.754;2023-05-20T12:02:38;5.88;;;2.70;;
33714;SDS011;20043;50.998;4.754;2023-05-20T12:05:04;6.60;;;2.40;;
33714;SDS011;20043;50.998;4.754;2023-05-20T12:07:29;3.25;;;2.67;;
33714;SDS011;20043;50.998;4.754;2023-05-20T12:09:55;4.65;;;2.58;;
33714;SDS011;20043;50.998;4.754;2023-05-20T12:12:21;3.92;;;2.25;;
33714;SDS011;20043;50.998;4.754;2023-05-20T12:14:46;8.80;;;2.67;;
33714;SDS011;20043;50.998;4.754;2023-05-20T12:17:12;4.80;;;2.60;;
33714;SDS011;20043;50.998;4.754;2023-05-20T12:19:37;13.77;;;2.30;;
33714;SDS011;20043;50.998;4.754;2023-05-20T12:22:03;4.97;;;2.45;;
33714;SDS011;20043;50.998;4.754;2023-05-20T12:24:29;5.60;;;2.42;;
33714;SDS011;20043;50.998;4.754;2023-05-20T12:26:54;6.30;;;2.15;;
33714;SDS011;20043;50.998;4.754;2023-05-20T12:29:20;3.38;;;1.85;;
33714;SDS011;20043;50.998;4.754;2023-05-20T12:31:46;5.85;;;2.10;;
33714;SDS011;20043;50.998;4.754;2023-05-20T12:34:11;3.60;;;2.20;;
33714;SDS011;20043;50.998;4.754;2023-05-20T12:36:37;5.85;;;2.30;;
33714;SDS011;20043;50.998;4.754;2023-05-20T12:39:02;5.68;;;2.47;;
33714;SDS011;20043;50.998;4.754;2023-05-20T12:41:29;5.28;;;2.15;;
33714;SDS011;20043;50.998;4.754;2023-05-20T12:43:54;6.65;;;2.20;;
33714;SDS011;20043;50.998;4.754;2023-05-20T12:46:20;5.88;;;1.98;;
33714;SDS011;20043;50.998;4.754;2023-05-20T12:48:46;4.78;;;2.13;;
33714;SDS011;20043;50.998;4.754;2023-05-20T12:51:12;4.20;;;2.33;;
33714;SDS011;20043;50.998;4.754;2023-05-20T12:53:38;9.98;;;2.50;;
33714;SDS011;20043;50.998;4.754;2023-05-20T12:56:03;4.22;;;2.40;;
33714;SDS011;20043;50.998;4.754;2023-05-20T12:58:29;9.00;;;2.40;;
33714;SDS011;20043;50.998;4.754;2023-05-20T13:00:55;5.65;;;2.10;;
33714;SDS011;20043;50.998;4.754;2023-05-20T13:03:20;3.63;;;2.10;;
33714;SDS011;20043;50.998;4.754;2023-05-20T13:05:46;14.57;;;2.30;;
33714;SDS011;20043;50.998;4.754;2023-05-20T13:08:11;5.22;;;2.25;;
33714;SDS011;20043;50.998;4.754;2023-05-20T13:10:38;7.38;;;2.30;;
33714;SDS011;20043;50.998;4.754;2023-05-20T13:13:04;4.28;;;2.30;;
33714;SDS011;20043;50.998;4.754;2023-05-20T13:15:30;5.60;;;2.13;;
33714;SDS011;20043;50.998;4.754;2023-05-20T13:17:57;5.70;;;2.40;;
33714;SDS011;20043;50.998;4.754;2023-05-20T13:20:24;7.43;;;2.28;;
33714;SDS011;20043;50.998;4.754;2023-05-20T13:22:50;7.50;;;2.63;;
33714;SDS011;20043;50.998;4.754;2023-05-20T13:25:16;8.70;;;2.40;;
33714;SDS011;20043;50.998;4.754;2023-05-20T13:27:42;3.88;;;2.45;;
33714;SDS011;20043;50.998;4.754;2023-05-20T13:30:07;4.18;;;2.13;;
33714;SDS011;20043;50.998;4.754;2023-05-20T13:32:33;8.73;;;2.40;;
33714;SDS011;20043;50.998;4.754;2023-05-20T13:34:59;5.30;;;2.42;;
33714;SDS011;20043;50.998;4.754;2023-05-20T13:37:25;4.82;;;2.33;;
33714;SDS011;20043;50.998;4.754;2023-05-20T13:39:50;6.40;;;2.00;;
33714;SDS011;20043;50.998;4.754;2023-05-20T13:42:16;2.97;;;2.28;;
33714;SDS011;20043;50.998;4.754;2023-05-20T13:44:41;9.65;;;2.78;;
33714;SDS011;20043;50.998;4.754;2023-05-20T13:47:07;3.85;;;2.20;;
33714;SDS011;20043;50.998;4.754;2023-05-20T13:49:33;3.88;;;2.60;;
33714;SDS011;20043;50.998;4.754;2023-05-20T13:51:58;5.97;;;2.60;;
33714;SDS011;20043;50.998;4.754;2023-05-20T13:54:24;5.85;;;2.40;;
33714;SDS011;20043;50.998;4.754;2023-05-20T13:56:51;5.63;;;2.13;;
33714;SDS011;20043;50.998;4.754;2023-05-20T13:59:17;5.15;;;2.13;;
33714;SDS011;20043;50.998;4.754;2023-05-20T14:01:42;4.78;;;2.20;;
33714;SDS011;20043;50.998;4.754;2023-05-20T14:04:09;7.38;;;2.15;;
33714;SDS011;20043;50.998;4.754;2023-05-20T14:06:36;4.22;;;2.28;;
33714;SDS011;20043;50.998;4.754;2023-05-20T14:09:02;10.32;;;2.15;;
33714;SDS011;20043;50.998;4.754;2023-05-20T14:11:28;10.48;;;2.22;;
33714;SDS011;20043;50.998;4.754;2023-05-20T14:13:53;4.70;;;2.08;;
33714;SDS011;20043;50.998;4.754;2023-05-20T14:16:19;5.40;;;2.17;;
33714;SDS011;20043;50.998;4.754;2023-05-20T14:18:45;4.60;;;2.10;;
33714;SDS011;20043;50.998;4.754;2023-05-20T14:21:10;7.05;;;2.17;;
33714;SDS011;20043;50.998;4.754;2023-05-20T14:23:36;9.27;;;2.30;;
33714;SDS011;20043;50.998;4.754;2023-05-20T14:26:02;6.35;;;2.58;;
33714;SDS011;20043;50.998;4.754;2023-05-20T14:28:27;4.18;;;2.13;;
33714;SDS011;20043;50.998;4.754;2023-05-20T14:30:53;8.05;;;2.50;;
33714;SDS011;20043;50.998;4.754;2023-05-20T14:33:18;7.82;;;2.47;;
33714;SDS011;20043;50.998;4.754;2023-05-20T14:35:44;4.25;;;2.08;;
33714;SDS011;20043;50.998;4.754;2023-05-20T14:38:10;4.22;;;2.10;;
33714;SDS011;20043;50.998;4.754;2023-05-20T14:40:35;3.22;;;2.00;;
33714;SDS011;20043;50.998;4.754;2023-05-20T14:43:01;4.43;;;2.22;;
33714;SDS011;20043;50.998;4.754;2023-05-20T14:45:26;5.40;;;2.08;;
33714;SDS011;20043;50.998;4.754;2023-05-20T14:47:52;7.18;;;2.40;;
33714;SDS011;20043;50.998;4.754;2023-05-20T14:50:18;8.15;;;2.47;;